createdAt,value
2018-11-07T00:02:03.710Z,13.67
2018-11-07T00:05:20.372Z,13.40
2018-11-07T00:11:49.475Z,12.80
2018-11-07T00:15:05.211Z,13.53
2018-11-07T00:18:21.622Z,13.33
2018-11-07T00:21:38.231Z,13.37
2018-11-07T00:24:54.062Z,13.30
2018-11-07T00:28:10.287Z,13.60
2018-11-07T00:31:22.575Z,12.67
2018-11-07T00:34:46.278Z,12.10
2018-11-07T00:38:02.305Z,12.73
2018-11-07T00:41:18.628Z,11.10
2018-11-07T00:44:34.786Z,11.40
2018-11-07T00:47:50.893Z,11.50
2018-11-07T00:51:07.062Z,11.77
2018-11-07T00:54:23.168Z,11.60
2018-11-07T00:57:39.045Z,11.20
2018-11-07T01:00:55.222Z,11.33
2018-11-07T01:04:11.713Z,12.70
2018-11-07T01:07:27.965Z,12.40
2018-11-07T01:10:44.292Z,11.63
2018-11-07T01:14:00.447Z,12.67
2018-11-07T01:17:05.483Z,13.70
2018-11-07T01:20:30.133Z,13.27
2018-11-07T01:23:53.816Z,13.77
2018-11-07T01:27:09.802Z,13.90
2018-11-07T01:30:25.730Z,14.23
2018-11-07T01:33:41.728Z,12.00
2018-11-07T01:36:57.513Z,11.73
2018-11-07T01:40:16.972Z,11.57
2018-11-07T01:43:33.534Z,12.07
2018-11-07T01:46:49.967Z,11.43
2018-11-07T01:49:54.806Z,12.10
2018-11-07T01:53:11.030Z,13.13
2018-11-07T01:56:23.320Z,14.47
2018-11-07T01:59:39.210Z,13.07
2018-11-07T02:02:55.037Z,12.37
2018-11-07T02:06:11.177Z,12.63
2018-11-07T02:09:27.436Z,13.07
2018-11-07T02:12:44.148Z,12.27
2018-11-07T02:15:59.949Z,12.10
2018-11-07T02:19:15.900Z,11.53
2018-11-07T02:22:31.671Z,12.27
2018-11-07T02:25:48.426Z,11.17
2018-11-07T02:29:05.217Z,13.17
2018-11-07T02:32:21.171Z,12.23
2018-11-07T02:35:37.756Z,11.20
2018-11-07T02:38:53.737Z,11.00
2018-11-07T02:42:09.429Z,11.50
2018-11-07T02:45:26.128Z,13.27
2018-11-07T02:48:49.869Z,12.30
2018-11-07T02:52:05.572Z,11.70
2018-11-07T02:55:21.808Z,12.13
2018-11-07T02:58:37.641Z,12.50
2018-11-07T03:01:55.986Z,11.50
2018-11-07T03:05:12.434Z,12.50
2018-11-07T03:08:31.678Z,13.00
2018-11-07T03:11:47.816Z,11.80
2018-11-07T03:14:52.729Z,11.67
2018-11-07T03:18:09.165Z,12.17
2018-11-07T03:24:41.032Z,11.90
2018-11-07T03:28:04.746Z,11.67
2018-11-07T03:31:09.704Z,12.23
2018-11-07T03:34:33.417Z,11.60
2018-11-07T03:37:38.258Z,11.00
2018-11-07T03:41:01.966Z,10.83
2018-11-07T03:44:25.762Z,10.93
2018-11-07T03:47:49.508Z,11.67
2018-11-07T03:51:24.902Z,11.57
2018-11-07T03:54:18.090Z,11.40
2018-11-07T03:57:41.821Z,11.80
2018-11-07T04:01:05.549Z,11.53
2018-11-07T04:04:21.373Z,11.43
2018-11-07T04:07:26.274Z,12.33
2018-11-07T04:10:49.962Z,12.37
2018-11-07T04:13:54.963Z,12.10
2018-11-07T04:17:18.682Z,12.03
2018-11-07T04:20:42.362Z,12.40
2018-11-07T04:24:02.751Z,11.43
2018-11-07T04:27:26.493Z,11.83
2018-11-07T04:30:50.343Z,11.30
2018-11-07T04:33:55.183Z,11.33
2018-11-07T04:37:30.987Z,10.93
2018-11-07T04:40:42.904Z,10.70
2018-11-07T04:43:58.942Z,11.77
2018-11-07T04:47:14.917Z,11.37
2018-11-07T04:50:31.507Z,11.03
2018-11-07T04:53:47.450Z,10.07
2018-11-07T04:57:03.302Z,10.00
2018-11-07T05:00:42.203Z,11.47
2018-11-07T05:03:52.198Z,10.93
2018-11-07T05:06:57.185Z,10.80
2018-11-07T05:10:02.055Z,10.80
2018-11-07T05:13:25.743Z,10.20
2018-11-07T05:16:49.460Z,9.90
2018-11-07T05:20:05.368Z,11.97
2018-11-07T05:23:21.910Z,11.33
2018-11-07T05:26:37.768Z,12.30
2018-11-07T05:29:53.503Z,10.67
2018-11-07T05:33:09.768Z,12.13
2018-11-07T05:36:25.583Z,12.13
2018-11-07T05:39:41.517Z,12.30
2018-11-07T05:42:58.215Z,11.73
2018-11-07T05:46:14.157Z,11.23
2018-11-07T05:49:30.214Z,11.83
2018-11-07T05:52:49.315Z,12.03
2018-11-07T05:56:05.848Z,10.73
2018-11-07T05:59:21.585Z,11.03
2018-11-07T06:02:37.300Z,9.80
2018-11-07T06:05:53.364Z,10.90
2018-11-07T06:09:09.528Z,10.70
2018-11-07T06:12:25.375Z,10.50
2018-11-07T06:15:41.048Z,10.40
2018-11-07T06:18:57.511Z,11.87
2018-11-07T06:22:13.349Z,10.40
2018-11-07T06:25:29.113Z,10.70
2018-11-07T06:28:45.852Z,10.47
2018-11-07T06:32:11.984Z,9.67
2018-11-07T06:35:16.344Z,9.43
2018-11-07T06:38:40.052Z,10.13
2018-11-07T06:41:57.525Z,9.17
2018-11-07T06:45:13.294Z,9.30
2018-11-07T06:48:29.864Z,9.53
2018-11-07T06:51:34.682Z,9.10
2018-11-07T06:55:12.518Z,8.87
2018-11-07T06:58:13.931Z,10.10
2018-11-07T07:01:30.466Z,10.93
2018-11-07T07:04:46.489Z,9.90
2018-11-07T07:08:02.891Z,10.23
2018-11-07T07:11:18.745Z,9.60
2018-11-07T07:14:35.192Z,9.93
2018-11-07T07:17:51.647Z,9.60
2018-11-07T07:21:07.691Z,8.90
2018-11-07T07:24:23.453Z,9.67
2018-11-07T07:27:40.280Z,10.73
2018-11-07T07:30:45.040Z,9.23
2018-11-07T07:34:20.189Z,10.37
2018-11-07T07:37:32.459Z,10.07
2018-11-07T07:40:48.956Z,9.70
2018-11-07T07:44:05.849Z,9.50
2018-11-07T07:47:29.409Z,9.70
2018-11-07T07:50:53.132Z,8.80
2018-11-07T07:54:08.906Z,9.23
2018-11-07T07:57:25.461Z,10.27
2018-11-07T08:00:42.069Z,8.93
2018-11-07T08:03:58.205Z,9.90
2018-11-07T08:07:14.587Z,8.53
2018-11-07T08:10:30.319Z,7.80
2018-11-07T08:13:35.690Z,8.63
2018-11-07T08:16:59.110Z,9.17
2018-11-07T08:20:34.487Z,9.33
2018-11-07T08:23:38.683Z,9.20
2018-11-07T08:26:55.240Z,9.43
2018-11-07T08:30:11.262Z,9.60
2018-11-07T08:33:27.726Z,8.20
2018-11-07T08:36:43.730Z,9.10
2018-11-07T08:39:59.820Z,9.20
2018-11-07T08:43:15.701Z,7.90
2018-11-07T08:46:31.681Z,8.50
2018-11-07T08:49:47.580Z,8.30
2018-11-07T08:53:03.455Z,7.93
2018-11-07T08:56:19.372Z,7.97
2018-11-07T08:59:35.374Z,8.53
2018-11-07T09:02:51.470Z,9.20
2018-11-07T09:06:09.753Z,8.17
2018-11-07T09:09:25.621Z,9.00
2018-11-07T09:12:41.406Z,9.17
2018-11-07T09:15:46.404Z,9.50
2018-11-07T09:19:10.076Z,9.73
2018-11-07T09:22:33.799Z,9.80
2018-11-07T09:25:57.516Z,9.23
2018-11-07T09:29:21.287Z,10.30
2018-11-07T09:32:44.984Z,10.60
2018-11-07T09:36:08.679Z,10.13
2018-11-07T09:39:13.510Z,10.17
2018-11-07T09:42:37.602Z,10.13
2018-11-07T09:46:01.358Z,11.40
2018-11-07T09:49:17.336Z,10.20
2018-11-07T09:52:33.180Z,10.70
2018-11-07T09:55:49.791Z,10.67
2018-11-07T09:58:54.063Z,10.27
2018-11-07T10:02:10.616Z,10.20
2018-11-07T10:05:26.531Z,9.83
2018-11-07T10:08:31.413Z,10.67
2018-11-07T10:11:55.089Z,9.80
2018-11-07T10:15:12.190Z,10.27
2018-11-07T10:18:28.617Z,9.73
2018-11-07T10:21:45.330Z,9.40
2018-11-07T10:25:01.116Z,9.13
2018-11-07T10:28:17.036Z,8.90
2018-11-07T10:31:32.907Z,9.50
2018-11-07T10:34:48.887Z,8.33
2018-11-07T10:38:04.666Z,9.53
2018-11-07T10:41:20.429Z,8.00
2018-11-07T10:44:36.332Z,8.20
2018-11-07T10:47:52.593Z,8.63
2018-11-07T10:51:08.587Z,8.50
2018-11-07T10:54:24.311Z,8.33
2018-11-07T10:57:40.444Z,8.80
2018-11-07T11:01:14.878Z,9.10
2018-11-07T11:04:30.853Z,8.37
2018-11-07T11:07:47.416Z,8.27
2018-11-07T11:11:03.080Z,8.00
2018-11-07T11:14:19.387Z,7.97
2018-11-07T11:17:35.389Z,8.47
2018-11-07T11:20:40.246Z,7.30
2018-11-07T11:24:04.008Z,7.30
2018-11-07T11:30:44.816Z,7.67
2018-11-07T11:34:00.656Z,8.03
2018-11-07T11:37:16.473Z,7.80
2018-11-07T11:40:33.012Z,7.70
2018-11-07T11:43:49.294Z,7.13
2018-11-07T11:47:05.783Z,7.30
2018-11-07T11:50:22.370Z,6.77
2018-11-07T11:53:38.595Z,6.20
2018-11-07T11:56:43.461Z,6.10
2018-11-07T12:00:20.340Z,5.70
2018-11-07T12:03:25.273Z,6.30
2018-11-07T12:06:18.255Z,6.37
2018-11-07T12:09:41.952Z,6.03
2018-11-07T12:12:50.859Z,6.37
2018-11-07T12:16:14.947Z,5.83
2018-11-07T12:19:31.179Z,6.37
2018-11-07T12:22:49.903Z,5.93
2018-11-07T12:26:06.422Z,5.90
2018-11-07T12:29:18.517Z,5.90
2018-11-07T12:32:34.595Z,7.20
2018-11-07T12:35:50.710Z,5.77
2018-11-07T12:39:06.692Z,5.30
2018-11-07T12:42:22.649Z,5.97
2018-11-07T12:45:38.298Z,6.30
2018-11-07T12:48:54.293Z,5.83
2018-11-07T12:52:09.943Z,5.90
2018-11-07T12:55:25.699Z,6.10
2018-11-07T12:58:41.920Z,5.83
2018-11-07T13:01:57.797Z,5.70
2018-11-07T13:05:17.868Z,6.00
2018-11-07T13:08:34.429Z,5.87
2018-11-07T13:11:50.310Z,5.70
2018-11-07T13:15:06.060Z,6.00
2018-11-07T13:18:22.219Z,5.93
2018-11-07T13:21:38.094Z,6.70
2018-11-07T13:24:42.933Z,5.87
2018-11-07T13:28:06.714Z,6.20
2018-11-07T13:31:11.506Z,6.33
2018-11-07T13:34:35.302Z,6.70
2018-11-07T13:37:52.173Z,6.10
2018-11-07T13:41:07.901Z,6.67
2018-11-07T13:44:24.008Z,5.37
2018-11-07T13:47:47.441Z,5.50
2018-11-07T13:51:11.105Z,6.40
2018-11-07T13:54:27.033Z,6.13
2018-11-07T13:57:43.834Z,6.20
2018-11-07T14:01:00.424Z,6.47
2018-11-07T14:04:16.800Z,6.07
2018-11-07T14:07:32.814Z,5.90
2018-11-07T14:10:48.608Z,5.90
2018-11-07T14:13:53.568Z,5.43
2018-11-07T14:17:17.324Z,5.90
2018-11-07T14:20:33.989Z,5.23
2018-11-07T14:23:49.851Z,5.10
2018-11-07T14:27:05.724Z,5.37
2018-11-07T14:30:21.891Z,5.93
2018-11-07T14:33:38.624Z,6.17
2018-11-07T14:36:54.626Z,5.77
2018-11-07T14:40:10.590Z,5.40
2018-11-07T14:43:15.692Z,5.00
2018-11-07T14:46:39.530Z,5.50
2018-11-07T14:50:03.246Z,5.40
2018-11-07T14:53:18.909Z,5.83
2018-11-07T14:56:35.617Z,5.50
2018-11-07T14:59:51.335Z,5.00
2018-11-07T15:03:07.681Z,5.20
2018-11-07T15:06:24.230Z,5.60
2018-11-07T15:09:40.541Z,5.27
2018-11-07T15:12:56.355Z,5.03
2018-11-07T15:16:12.124Z,5.30
2018-11-07T15:19:28.397Z,5.10
2018-11-07T15:22:44.608Z,5.57
2018-11-07T15:26:08.039Z,4.80
2018-11-07T15:29:43.420Z,4.97
2018-11-07T15:32:47.935Z,5.53
2018-11-07T15:35:52.873Z,4.97
2018-11-07T15:39:28.266Z,4.87
2018-11-07T15:42:33.065Z,5.13
2018-11-07T15:45:48.968Z,4.57
2018-11-07T15:48:53.816Z,4.53
2018-11-07T15:52:17.536Z,4.70
2018-11-07T15:55:52.879Z,4.70
2018-11-07T15:58:57.977Z,4.83
2018-11-07T16:02:14.000Z,4.53
2018-11-07T16:05:30.228Z,4.90
2018-11-07T16:08:35.174Z,4.27
2018-11-07T16:11:58.871Z,4.20
2018-11-07T16:15:03.712Z,4.20
2018-11-07T16:18:27.431Z,4.73
2018-11-07T16:21:43.360Z,5.03
2018-11-07T16:24:59.760Z,4.40
2018-11-07T16:28:16.026Z,4.63
2018-11-07T16:31:32.674Z,4.57
2018-11-07T16:34:49.324Z,5.00
2018-11-07T16:38:05.346Z,4.13
2018-11-07T16:41:21.436Z,5.00
2018-11-07T16:44:37.083Z,4.17
2018-11-07T16:47:53.825Z,5.30
2018-11-07T16:54:29.473Z,5.00
2018-11-07T16:57:34.899Z,4.80
2018-11-07T17:00:58.592Z,5.80
2018-11-07T17:04:15.369Z,5.20
2018-11-07T17:07:31.195Z,4.23
2018-11-07T17:10:46.878Z,4.47
2018-11-07T17:14:03.063Z,4.27
2018-11-07T17:17:19.002Z,4.70
2018-11-07T17:20:35.532Z,4.70
2018-11-07T17:26:26.822Z,5.00
2018-11-07T17:29:46.071Z,3.87
2018-11-07T17:32:55.447Z,4.17
2018-11-07T17:36:11.432Z,4.03
2018-11-07T17:39:29.445Z,4.17
2018-11-07T17:42:46.290Z,4.50
2018-11-07T17:46:02.893Z,4.37
2018-11-07T17:49:19.437Z,4.63
2018-11-07T17:52:35.871Z,4.57
2018-11-07T17:55:52.357Z,4.27
2018-11-07T17:59:08.783Z,4.40
2018-11-07T18:02:24.558Z,4.90
2018-11-07T18:05:41.011Z,3.97
2018-11-07T18:08:57.081Z,4.40
2018-11-07T18:12:12.826Z,4.23
2018-11-07T18:15:29.376Z,4.50
2018-11-07T18:18:45.406Z,4.40
2018-11-07T18:21:50.213Z,4.47
2018-11-07T18:25:26.918Z,3.67
2018-11-07T18:28:50.339Z,3.97
2018-11-07T18:31:55.143Z,4.10
2018-11-07T18:35:20.038Z,6.13
2018-11-07T18:38:35.676Z,5.67
2018-11-07T18:41:52.051Z,3.87
2018-11-07T18:45:08.638Z,4.70
2018-11-07T18:48:13.541Z,4.03
2018-11-07T18:51:37.278Z,4.30
2018-11-07T18:55:01.061Z,4.10
2018-11-07T18:58:16.912Z,3.80
2018-11-07T19:01:33.461Z,4.13
2018-11-07T19:04:49.525Z,3.83
2018-11-07T19:08:13.076Z,3.77
2018-11-07T19:11:36.847Z,3.90
2018-11-07T19:14:41.679Z,3.57
2018-11-07T19:18:05.626Z,3.90
2018-11-07T19:21:22.216Z,4.00
2018-11-07T19:24:38.102Z,3.67
2018-11-07T19:27:53.956Z,4.20
2018-11-07T19:31:09.937Z,3.50
2018-11-07T19:34:28.711Z,3.50
2018-11-07T19:37:44.447Z,3.90
2018-11-07T19:41:01.143Z,3.77
2018-11-07T19:44:16.838Z,4.00
2018-11-07T19:47:32.751Z,3.60
2018-11-07T19:50:48.627Z,3.13
2018-11-07T19:54:05.214Z,3.83
2018-11-07T19:57:21.731Z,3.53
2018-11-07T20:00:26.739Z,3.60
2018-11-07T20:03:45.780Z,3.83
2018-11-07T20:06:55.467Z,3.60
2018-11-07T20:10:12.794Z,3.73
2018-11-07T20:13:29.409Z,4.37
2018-11-07T20:16:45.943Z,3.90
2018-11-07T20:20:02.058Z,3.73
2018-11-07T20:23:18.423Z,4.33
2018-11-07T20:26:23.348Z,4.00
2018-11-07T20:29:28.630Z,4.00
2018-11-07T20:32:33.442Z,4.00
2018-11-07T20:35:52.705Z,4.00
2018-11-07T20:39:02.177Z,3.70
2018-11-07T20:42:18.105Z,3.87
2018-11-07T20:45:41.934Z,4.23
2018-11-07T20:49:06.139Z,4.17
2018-11-07T20:56:46.123Z,3.80
2018-11-07T20:59:48.578Z,3.43
2018-11-07T21:03:04.931Z,3.90
2018-11-07T21:06:28.829Z,3.97
2018-11-07T21:09:52.656Z,3.57
2018-11-07T21:13:16.183Z,3.93
2018-11-07T21:16:39.881Z,4.50
2018-11-07T21:19:55.893Z,4.60
2018-11-07T21:23:12.623Z,4.13
2018-11-07T21:26:28.514Z,3.63
2018-11-07T21:29:44.234Z,4.20
2018-11-07T21:33:00.657Z,3.80
2018-11-07T21:36:16.519Z,4.07
2018-11-07T21:39:32.494Z,4.17
2018-11-07T21:42:48.556Z,3.53
2018-11-07T21:46:04.813Z,4.73
2018-11-07T21:49:21.423Z,4.23
2018-11-07T21:52:37.383Z,4.07
2018-11-07T21:55:53.100Z,3.40
2018-11-07T21:59:09.374Z,4.00
2018-11-07T22:02:25.473Z,4.00
2018-11-07T22:05:42.098Z,4.20
2018-11-07T22:08:58.755Z,3.63
2018-11-07T22:12:14.853Z,3.50
2018-11-07T22:15:30.599Z,3.77
2018-11-07T22:18:47.246Z,4.00
2018-11-07T22:22:03.802Z,4.00
2018-11-07T22:25:20.763Z,3.93
2018-11-07T22:28:32.671Z,3.60
2018-11-07T22:31:48.817Z,4.10
2018-11-07T22:35:05.616Z,3.80
2018-11-07T22:38:10.414Z,3.60
2018-11-07T22:41:48.175Z,3.67
2018-11-07T22:44:57.855Z,4.00
2018-11-07T22:48:21.570Z,3.90
2018-11-07T22:51:38.256Z,3.80
2018-11-07T22:54:54.832Z,3.77
2018-11-07T22:58:10.730Z,3.63
2018-11-07T23:01:45.174Z,4.17
2018-11-07T23:05:01.751Z,4.10
2018-11-07T23:08:18.294Z,4.47
2018-11-07T23:11:39.943Z,3.77
2018-11-07T23:14:56.495Z,3.57
2018-11-07T23:18:12.236Z,4.00
2018-11-07T23:21:28.848Z,3.60
2018-11-07T23:24:44.610Z,3.63
2018-11-07T23:28:00.477Z,3.50
2018-11-07T23:31:16.461Z,3.60
2018-11-07T23:34:32.551Z,3.60
2018-11-07T23:37:48.896Z,3.50
2018-11-07T23:41:05.020Z,3.60
2018-11-07T23:44:20.859Z,3.60
2018-11-07T23:47:37.152Z,3.90
2018-11-07T23:50:53.316Z,3.97
2018-11-07T23:54:09.191Z,3.70
2018-11-07T23:57:25.037Z,3.93
